PWSweather.com
Personal Weather Stations
Station Observations
WISCHPK61
Green Bay Schmitt Park, Green Bay, WI 54311

Green Bay Schmitt ParkGreen Bay, WI 54311

Lat: 44.514277, Lon: -87.935067

Elevation: 735

Station Type: Acu Rite Pro Weather Center model 02032C

http://greenbayweathercam.com

High Low Average
Temperature 27.1°F-2.7°C 7.3°F-13.7°C 16.1°F-8.8°C
Dew Point 26.6°F-3.0°C 6.9°F-13.9°C 15.7°F-9.1°C
Winds 3.5 mph 5.6 kmh Calm Calm Calm WNWCalm WNW
Wind Gusts 8.1 mph13.0 kmh -- 1.0 mph1.6 kmh
Humidity 99% 97% 98%
Pressure 29.34 in993.6 mb 28.82 in976.0 mb -
Precipitation 0.00 in0.0 mm - -
Hour Temp Dew Point Humidity Winds Wind Gusts Pressure Precip Precip Rate Daily Precip Total
12:00 AM 27.3°F-2.6°C 26.8°F-2.9°C 98% 3.5 mph NW5.6 kmh NW 4.6 mph7.4 kmh 28.79 in974.9 mb - 0.00 in0.0 mm 0.12 in3.0 mm
01:00 AM 22.6°F-5.2°C 22.1°F-5.5°C 98% 3.5 mph NW5.6 kmh NW 5.8 mph9.3 kmh 28.82 in976.0 mb - 0.00 in0.0 mm 0.00 in0.0 mm
02:00 AM 21.9°F-5.6°C 21.7°F-5.7°C 99% 1.2 mph NW1.9 kmh NW 4.6 mph7.4 kmh 28.84 in976.6 mb - 0.00 in0.0 mm 0.00 in0.0 mm
03:00 AM 17.9°F-7.8°C 17.5°F-8.1°C 98% 2.3 mph NW3.7 kmh NW 2.3 mph3.7 kmh 28.88 in978.0 mb - 0.00 in0.0 mm 0.00 in0.0 mm
04:00 AM 14.7°F-9.6°C 14.5°F-9.7°C 99% Calm Calm -- 28.92 in979.3 mb - 0.00 in0.0 mm 0.00 in0.0 mm
05:00 AM 11.8°F-11.2°C 11.6°F-11.3°C 99% 2.3 mph NW3.7 kmh NW 4.6 mph7.4 kmh 28.95 in980.4 mb - 0.00 in0.0 mm 0.00 in0.0 mm
06:00 AM 10.4°F-12.0°C 10.2°F-12.1°C 99% 2.3 mph NW3.7 kmh NW 5.8 mph9.3 kmh 28.96 in980.7 mb - 0.00 in0.0 mm 0.00 in0.0 mm
07:00 AM 8.6°F-13.0°C 7.9°F-13.4°C 97% Calm Calm 8.1 mph13.0 kmh 28.99 in981.7 mb - 0.00 in0.0 mm 0.00 in0.0 mm
08:00 AM 7.3°F-13.7°C 6.9°F-13.9°C 98% Calm Calm -- 29.00 in982.1 mb - 0.00 in0.0 mm 0.00 in0.0 mm
09:00 AM 7.5°F-13.6°C 7.3°F-13.7°C 99% Calm Calm -- 29.03 in983.1 mb - 0.00 in0.0 mm 0.00 in0.0 mm
10:00 AM 9.0°F-12.8°C 8.8°F-12.9°C 99% Calm Calm -- 29.05 in983.7 mb - 0.00 in0.0 mm 0.00 in0.0 mm
11:00 AM 12.4°F-10.9°C 11.9°F-11.2°C 98% Calm Calm -- 29.07 in984.4 mb - 0.00 in0.0 mm 0.00 in0.0 mm
12:00 PM 17.6°F-8.0°C 17.4°F-8.1°C 99% Calm Calm 1.2 mph1.9 kmh 29.08 in984.8 mb - 0.00 in0.0 mm 0.00 in0.0 mm
01:00 PM 24.2°F-4.3°C 24.0°F-4.4°C 99% Calm Calm -- 29.11 in985.8 mb - 0.00 in0.0 mm 0.00 in0.0 mm
02:00 PM 27.1°F-2.7°C 26.6°F-3.0°C 98% Calm Calm -- 29.12 in986.1 mb - 0.00 in0.0 mm 0.00 in0.0 mm
03:00 PM 24.6°F-4.1°C 24.2°F-4.3°C 98% Calm Calm -- 29.15 in987.1 mb - 0.00 in0.0 mm 0.00 in0.0 mm
04:00 PM 23.5°F-4.7°C 23.3°F-4.8°C 99% Calm Calm -- 29.18 in988.1 mb - 0.00 in0.0 mm 0.00 in0.0 mm
05:00 PM 20.7°F-6.3°C 20.0°F-6.7°C 97% Calm Calm -- 29.21 in989.2 mb - 0.00 in0.0 mm 0.00 in0.0 mm
06:00 PM 17.2°F-8.2°C 16.7°F-8.5°C 98% Calm Calm -- 29.24 in990.2 mb - 0.00 in0.0 mm 0.00 in0.0 mm
07:00 PM 15.3°F-9.3°C 15.1°F-9.4°C 99% Calm Calm -- 29.26 in990.9 mb - 0.00 in0.0 mm 0.00 in0.0 mm
08:00 PM 15.3°F-9.3°C 15.1°F-9.4°C 99% Calm Calm -- 29.29 in991.9 mb - 0.00 in0.0 mm 0.00 in0.0 mm
09:00 PM 14.5°F-9.7°C 14.0°F-10.0°C 98% Calm Calm -- 29.30 in992.2 mb - 0.00 in0.0 mm 0.00 in0.0 mm
10:00 PM 12.9°F-10.6°C 12.7°F-10.7°C 99% Calm Calm -- 29.32 in992.9 mb - 0.00 in0.0 mm 0.00 in0.0 mm
11:00 PM 14.2°F-9.9°C 13.5°F-10.3°C 97% Calm Calm -- 29.34 in993.6 mb - 0.00 in0.0 mm 0.00 in0.0 mm